createdAt,value
2022-11-24T00:01:25.297Z,98971.20
2022-11-24T00:03:56.079Z,98980.00
2022-11-24T00:06:24.771Z,99000.00
2022-11-24T00:08:52.686Z,99013.60
2022-11-24T00:11:24.848Z,99024.60
2022-11-24T00:13:53.682Z,99028.80
2022-11-24T00:16:25.735Z,99035.60
2022-11-24T00:18:56.809Z,99031.80
2022-11-24T00:21:26.976Z,99025.80
2022-11-24T00:23:55.441Z,99024.80
2022-11-24T00:26:28.833Z,99025.40
2022-11-24T00:29:00.685Z,99019.80
2022-11-24T00:31:31.692Z,99022.00
2022-11-24T00:34:02.879Z,99024.00
2022-11-24T00:36:33.901Z,99024.60
2022-11-24T00:39:06.005Z,99022.20
2022-11-24T00:41:34.543Z,99036.60
2022-11-24T00:44:03.129Z,99049.60
2022-11-24T00:46:30.946Z,99057.60
2022-11-24T00:49:00.433Z,99064.40
2022-11-24T00:51:32.400Z,99075.60
2022-11-24T00:54:01.748Z,99091.00
2022-11-24T00:56:30.388Z,99095.00
2022-11-24T00:58:58.239Z,99089.20
2022-11-24T01:01:30.150Z,99100.80
2022-11-24T01:04:01.381Z,99106.00
2022-11-24T01:06:30.603Z,99105.20
2022-11-24T01:08:58.875Z,99110.40
2022-11-24T01:11:51.096Z,99106.20
2022-11-24T01:14:19.966Z,99116.40
2022-11-24T01:16:47.977Z,99111.80
2022-11-24T01:19:16.134Z,99112.40
2022-11-24T01:21:43.988Z,99116.60
2022-11-24T01:24:12.629Z,99113.40
2022-11-24T01:26:40.532Z,99120.00
2022-11-24T01:29:10.333Z,99121.00
2022-11-24T01:31:38.380Z,99123.60
2022-11-24T01:34:06.403Z,99130.20
2022-11-24T01:36:34.389Z,99140.20
2022-11-24T01:39:02.322Z,99142.20
2022-11-24T01:41:30.041Z,99159.80
2022-11-24T01:43:57.789Z,99156.60
2022-11-24T01:46:48.954Z,99174.40
2022-11-24T01:49:22.943Z,99175.60
2022-11-24T01:52:11.997Z,99184.80
2022-11-24T01:54:56.248Z,99185.60
2022-11-24T01:57:32.792Z,99193.20
2022-11-24T02:00:07.947Z,99200.00
2022-11-24T02:02:44.772Z,99196.40
2022-11-24T02:05:28.659Z,99203.00
2022-11-24T02:08:01.541Z,99209.60
2022-11-24T02:10:29.965Z,99210.60
2022-11-24T02:13:00.632Z,99216.80
2022-11-24T02:15:28.981Z,99226.80
2022-11-24T02:17:59.241Z,99235.60
2022-11-24T02:20:27.054Z,99236.40
2022-11-24T02:23:27.522Z,99228.80
2022-11-24T02:26:19.582Z,99240.40
2022-11-24T02:28:47.605Z,99247.80
2022-11-24T02:31:15.307Z,99248.20
2022-11-24T02:33:43.345Z,99248.00
2022-11-24T02:36:11.133Z,99255.40
2022-11-24T02:38:38.848Z,99264.00
2022-11-24T02:41:13.250Z,99270.00
2022-11-24T02:43:46.896Z,99263.20
2022-11-24T02:46:14.599Z,99268.00
2022-11-24T02:48:42.490Z,99272.80
2022-11-24T02:51:10.352Z,99284.20
2022-11-24T02:53:38.092Z,99290.20
2022-11-24T02:56:06.350Z,99299.80
2022-11-24T02:58:34.366Z,99299.80
2022-11-24T03:01:02.117Z,99308.40
2022-11-24T03:03:29.886Z,99307.80
2022-11-24T03:05:57.603Z,99303.60
2022-11-24T03:08:25.267Z,99303.60
2022-11-24T03:10:52.986Z,99312.40
2022-11-24T03:13:20.654Z,99311.20
2022-11-24T03:15:48.682Z,99313.60
2022-11-24T03:18:16.415Z,99322.60
2022-11-24T03:20:44.213Z,99329.20
2022-11-24T03:23:11.972Z,99330.60
2022-11-24T03:25:39.720Z,99338.40
2022-11-24T03:28:07.398Z,99341.20
2022-11-24T03:30:35.274Z,99350.40
2022-11-24T03:33:04.970Z,99359.20
2022-11-24T03:35:32.646Z,99356.20
2022-11-24T03:38:00.505Z,99352.00
2022-11-24T03:40:28.341Z,99349.40
2022-11-24T03:42:56.007Z,99361.20
2022-11-24T03:45:44.896Z,99358.40
2022-11-24T03:48:11.288Z,99359.20
2022-11-24T03:50:39.077Z,99367.20
2022-11-24T03:53:06.825Z,99364.80
2022-11-24T03:55:35.237Z,99369.20
2022-11-24T03:58:02.956Z,99376.40
2022-11-24T04:00:31.550Z,99374.60
2022-11-24T04:02:59.302Z,99376.40
2022-11-24T04:05:27.071Z,99384.20
2022-11-24T04:07:57.624Z,99388.20
2022-11-24T04:10:25.313Z,99397.40
2022-11-24T04:12:53.098Z,99401.20
2022-11-24T04:15:21.671Z,99396.80
2022-11-24T04:17:50.756Z,99407.80
2022-11-24T04:20:18.686Z,99407.40
2022-11-24T04:22:46.431Z,99407.40
2022-11-24T04:25:17.342Z,99417.40
2022-11-24T04:27:45.392Z,99412.80
2022-11-24T04:30:13.139Z,99409.40
2022-11-24T04:32:40.830Z,99419.60
2022-11-24T04:35:08.842Z,99422.80
2022-11-24T04:37:36.569Z,99422.60
2022-11-24T04:40:07.152Z,99421.80
2022-11-24T04:42:34.954Z,99419.60
2022-11-24T04:45:03.901Z,99421.80
2022-11-24T04:47:31.804Z,99425.00
2022-11-24T04:49:59.560Z,99426.60
2022-11-24T04:52:27.557Z,99425.80
2022-11-24T04:54:55.191Z,99429.40
2022-11-24T04:57:26.487Z,99438.00
2022-11-24T04:59:56.001Z,99444.20
2022-11-24T05:02:24.506Z,99439.00
2022-11-24T05:04:52.469Z,99440.40
2022-11-24T05:07:20.296Z,99444.80
2022-11-24T05:10:06.928Z,99456.60
2022-11-24T05:12:34.712Z,99455.20
2022-11-24T05:15:05.683Z,99460.00
2022-11-24T05:17:38.985Z,99461.80
2022-11-24T05:20:08.131Z,99464.60
2022-11-24T05:22:35.914Z,99468.80
2022-11-24T05:25:03.971Z,99466.40
2022-11-24T05:27:31.657Z,99469.20
2022-11-24T05:29:59.496Z,99468.40
2022-11-24T05:32:27.240Z,99469.40
2022-11-24T05:34:55.169Z,99472.80
2022-11-24T05:37:23.015Z,99468.00
2022-11-24T05:39:50.702Z,99468.80
2022-11-24T05:42:38.371Z,99472.60
2022-11-24T05:45:17.714Z,99484.00
2022-11-24T05:47:46.329Z,99486.40
2022-11-24T05:50:18.042Z,99490.40
2022-11-24T05:52:46.084Z,99494.20
2022-11-24T05:55:15.316Z,99505.80
2022-11-24T05:57:43.596Z,99502.60
2022-11-24T06:00:12.626Z,99498.00
2022-11-24T06:02:41.223Z,99524.80
2022-11-24T06:05:09.471Z,99521.20
2022-11-24T06:07:37.554Z,99530.40
2022-11-24T06:10:05.657Z,99534.20
2022-11-24T06:12:33.366Z,99536.40
2022-11-24T06:15:01.346Z,99531.40
2022-11-24T06:17:29.193Z,99529.40
2022-11-24T06:19:57.023Z,99529.00
2022-11-24T06:22:24.733Z,99532.60
2022-11-24T06:24:52.469Z,99529.60
2022-11-24T06:27:20.202Z,99526.80
2022-11-24T06:29:48.035Z,99511.20
2022-11-24T06:32:15.951Z,99522.00
2022-11-24T06:34:44.224Z,99511.80
2022-11-24T06:37:11.978Z,99516.60
2022-11-24T06:39:39.888Z,99525.00
2022-11-24T06:42:07.602Z,99521.40
2022-11-24T06:44:35.732Z,99516.80
2022-11-24T06:47:03.693Z,99515.80
2022-11-24T06:49:31.420Z,99520.80
2022-11-24T06:51:59.183Z,99525.60
2022-11-24T06:54:27.089Z,99530.60
2022-11-24T06:56:59.277Z,99532.60
2022-11-24T06:59:27.687Z,99533.40
2022-11-24T07:01:55.408Z,99540.20
2022-11-24T07:04:23.090Z,99542.00
2022-11-24T07:06:50.807Z,99547.00
2022-11-24T07:09:18.543Z,99550.40
2022-11-24T07:11:46.387Z,99562.80
2022-11-24T07:14:14.154Z,99564.20
2022-11-24T07:16:42.299Z,99572.80
2022-11-24T07:19:10.973Z,99575.80
2022-11-24T07:21:38.725Z,99575.20
2022-11-24T07:24:06.988Z,99581.00
2022-11-24T07:26:37.373Z,99576.80
2022-11-24T07:29:05.441Z,99579.80
2022-11-24T07:31:33.376Z,99581.80
2022-11-24T07:34:01.118Z,99583.20
2022-11-24T07:36:29.204Z,99582.00
2022-11-24T07:38:56.985Z,99583.20
2022-11-24T07:41:24.680Z,99588.80
2022-11-24T07:43:53.068Z,99586.40
2022-11-24T07:46:21.086Z,99585.60
2022-11-24T07:48:48.977Z,99584.60
2022-11-24T07:51:16.946Z,99586.40
2022-11-24T07:53:45.402Z,99596.60
2022-11-24T07:56:13.350Z,99593.40
2022-11-24T07:58:41.346Z,99595.00
2022-11-24T08:01:17.946Z,99590.20
2022-11-24T08:03:47.062Z,99587.80
2022-11-24T08:06:24.408Z,99590.80
2022-11-24T08:08:55.107Z,99583.80
2022-11-24T08:11:23.317Z,99586.00
2022-11-24T08:13:51.133Z,99583.00
2022-11-24T08:16:20.482Z,99570.40
2022-11-24T08:18:55.332Z,99577.20
2022-11-24T08:21:24.361Z,99568.40
2022-11-24T08:23:56.875Z,99561.00
2022-11-24T08:26:25.533Z,99566.80
2022-11-24T08:28:57.504Z,99563.60
2022-11-24T08:31:33.367Z,99556.60
2022-11-24T08:34:03.903Z,99553.00
2022-11-24T08:36:33.510Z,99548.00
2022-11-24T08:39:01.859Z,99552.20
2022-11-24T08:41:30.876Z,99553.00
2022-11-24T08:43:58.730Z,99556.00
2022-11-24T08:46:26.627Z,99558.40
2022-11-24T08:48:55.437Z,99562.80
2022-11-24T08:51:27.127Z,99562.80
2022-11-24T08:54:00.643Z,99567.40
2022-11-24T08:56:31.946Z,99572.20
2022-11-24T08:59:00.618Z,99570.60
2022-11-24T09:01:29.650Z,99573.40
2022-11-24T09:03:58.093Z,99578.00
2022-11-24T09:06:30.918Z,99575.20
2022-11-24T09:09:00.030Z,99572.20
2022-11-24T09:11:28.205Z,99564.60
2022-11-24T09:13:56.012Z,99567.80
2022-11-24T09:16:27.750Z,99565.00
2022-11-24T09:19:02.184Z,99561.80
2022-11-24T09:21:34.186Z,99561.00
2022-11-24T09:24:02.014Z,99568.40
2022-11-24T09:26:33.332Z,99572.40
2022-11-24T09:29:03.749Z,99560.80
2022-11-24T09:31:35.671Z,99560.80
2022-11-24T09:34:07.378Z,99562.80
2022-11-24T09:36:36.641Z,99556.00
2022-11-24T09:39:04.957Z,99550.40
2022-11-24T09:42:00.577Z,99553.80
2022-11-24T09:45:35.427Z,99547.40
2022-11-24T09:48:21.439Z,99545.80
2022-11-24T09:50:52.318Z,99545.20
2022-11-24T09:53:39.227Z,99542.80
2022-11-24T09:56:26.254Z,99537.20
2022-11-24T09:58:59.853Z,99533.80
2022-11-24T10:01:36.808Z,99523.80
2022-11-24T10:04:16.497Z,99525.40
2022-11-24T10:07:01.673Z,99531.60
2022-11-24T10:09:56.604Z,99516.40
2022-11-24T10:12:46.036Z,99513.20
2022-11-24T10:16:01.879Z,99506.60
2022-11-24T10:18:55.097Z,99509.60
2022-11-24T10:21:47.326Z,99514.00
2022-11-24T10:24:58.132Z,99511.40
2022-11-24T10:27:39.860Z,99502.20
2022-11-24T10:30:24.022Z,99501.80
2022-11-24T10:32:59.642Z,99503.00
2022-11-24T10:35:55.274Z,99501.20
2022-11-24T10:38:42.453Z,99500.60
2022-11-24T10:41:23.927Z,99490.40
2022-11-24T10:43:52.454Z,99485.00
2022-11-24T10:46:26.423Z,99486.20
2022-11-24T10:49:02.981Z,99481.20
2022-11-24T10:51:30.726Z,99472.60
2022-11-24T10:54:09.536Z,99474.60
2022-11-24T10:56:42.145Z,99466.00
2022-11-24T10:59:25.441Z,99463.00
2022-11-24T11:01:53.763Z,99451.80
2022-11-24T11:04:28.960Z,99453.60
2022-11-24T11:07:18.529Z,99452.60
2022-11-24T11:09:48.572Z,99451.00
2022-11-24T11:12:43.839Z,99442.40
2022-11-24T11:15:31.479Z,99425.40
2022-11-24T11:18:01.414Z,99428.00
2022-11-24T11:20:35.065Z,99426.40
2022-11-24T11:23:19.855Z,99419.00
2022-11-24T11:25:48.393Z,99403.60
2022-11-24T11:28:26.600Z,99401.20
2022-11-24T11:31:22.113Z,99391.20
2022-11-24T11:34:26.666Z,99381.60
2022-11-24T11:36:58.712Z,99368.20
2022-11-24T11:39:37.768Z,99366.20
2022-11-24T11:42:53.769Z,99365.40
2022-11-24T11:45:20.939Z,99355.20
2022-11-24T11:48:01.113Z,99350.20
2022-11-24T11:51:21.848Z,99350.00
2022-11-24T11:54:04.460Z,99345.20
2022-11-24T11:56:49.209Z,99332.20
2022-11-24T11:59:38.165Z,99339.60
2022-11-24T12:02:53.805Z,99332.60
2022-11-24T12:05:34.824Z,99324.00
2022-11-24T12:08:43.981Z,99314.20
2022-11-24T12:11:58.663Z,99313.00
2022-11-24T12:14:46.769Z,99304.20
2022-11-24T12:18:33.141Z,99298.60
2022-11-24T12:21:26.238Z,99305.80
2022-11-24T12:24:19.172Z,99300.20
2022-11-24T12:26:55.597Z,99291.60
2022-11-24T12:30:02.415Z,99291.80
2022-11-24T12:33:04.940Z,99296.00
2022-11-24T12:35:36.307Z,99288.40
2022-11-24T12:38:27.827Z,99287.60
2022-11-24T12:44:58.948Z,99271.00
2022-11-24T12:48:04.448Z,99257.40
2022-11-24T12:50:39.168Z,99256.00
2022-11-24T12:53:32.207Z,99256.20
2022-11-24T12:56:28.800Z,99252.40
2022-11-24T12:59:29.333Z,99249.20
2022-11-24T13:02:22.819Z,99245.80
2022-11-24T13:05:12.871Z,99237.40
2022-11-24T13:07:57.675Z,99224.40
2022-11-24T13:10:46.957Z,99234.40
2022-11-24T13:13:15.378Z,99224.40
2022-11-24T13:16:34.510Z,99220.00
2022-11-24T13:18:55.852Z,99222.00
2022-11-24T13:21:52.789Z,99220.00
2022-11-24T13:24:31.639Z,99215.40
2022-11-24T13:27:24.384Z,99207.80
2022-11-24T13:29:53.333Z,99197.20
2022-11-24T13:32:21.165Z,99198.60
2022-11-24T13:34:54.575Z,99195.00
2022-11-24T13:37:31.984Z,99192.40
2022-11-24T13:40:13.433Z,99182.80
2022-11-24T13:42:57.187Z,99181.80
2022-11-24T13:45:40.695Z,99176.80
2022-11-24T13:48:22.139Z,99170.00
2022-11-24T13:50:51.008Z,99177.80
2022-11-24T13:53:34.938Z,99184.20
2022-11-24T13:56:02.564Z,99171.00
2022-11-24T13:58:37.731Z,99159.80
2022-11-24T14:01:24.391Z,99153.80
2022-11-24T14:04:31.795Z,99149.80
2022-11-24T14:07:09.478Z,99149.60
2022-11-24T14:09:44.938Z,99141.60
2022-11-24T14:12:19.010Z,99146.00
2022-11-24T14:14:49.745Z,99144.60
2022-11-24T14:17:26.684Z,99138.60
2022-11-24T14:19:57.211Z,99139.40
2022-11-24T14:22:41.377Z,99140.20
2022-11-24T14:25:27.092Z,99130.40
2022-11-24T14:27:54.816Z,99120.20
2022-11-24T14:30:24.894Z,99122.00
2022-11-24T14:32:59.476Z,99111.80
2022-11-24T14:35:36.124Z,99117.20
2022-11-24T14:38:05.973Z,99108.80
2022-11-24T14:40:51.359Z,99107.20
2022-11-24T14:43:33.052Z,99100.40
2022-11-24T14:46:09.320Z,99093.00
2022-11-24T14:48:46.219Z,99086.60
2022-11-24T14:51:24.773Z,99087.00
2022-11-24T14:53:58.381Z,99087.20
2022-11-24T14:56:28.738Z,99079.40
2022-11-24T14:58:58.734Z,99077.00
2022-11-24T15:01:26.429Z,99072.60
2022-11-24T15:04:38.882Z,99078.00
2022-11-24T15:07:40.959Z,99076.80
2022-11-24T15:10:33.752Z,99079.80
2022-11-24T15:13:07.212Z,99086.40
2022-11-24T15:15:37.294Z,99082.20
2022-11-24T15:18:19.345Z,99081.60
2022-11-24T15:20:47.120Z,99077.80
2022-11-24T15:23:27.976Z,99068.00
2022-11-24T15:26:01.803Z,99070.60
2022-11-24T15:28:31.356Z,99081.00
2022-11-24T15:31:10.708Z,99069.60
2022-11-24T15:33:39.880Z,99063.40
2022-11-24T15:36:08.383Z,99076.20
2022-11-24T15:38:36.071Z,99080.60
2022-11-24T15:41:19.060Z,99079.40
2022-11-24T15:43:47.478Z,99083.00
2022-11-24T15:46:15.955Z,99089.60
2022-11-24T15:48:43.724Z,99088.60
2022-11-24T15:51:14.856Z,99087.40
2022-11-24T15:53:51.205Z,99086.40
2022-11-24T15:56:28.786Z,99089.60
2022-11-24T15:58:57.321Z,99090.40
2022-11-24T16:01:31.304Z,99090.40
2022-11-24T16:04:00.699Z,99090.00
2022-11-24T16:06:28.940Z,99093.00
2022-11-24T16:08:58.169Z,99092.60
2022-11-24T16:11:26.694Z,99133.80
2022-11-24T16:13:54.804Z,99155.40
2022-11-24T16:16:24.703Z,99146.60
2022-11-24T16:18:53.101Z,99125.60
2022-11-24T16:21:20.896Z,99139.40
2022-11-24T16:23:48.755Z,99151.60
2022-11-24T16:26:16.533Z,99157.40
2022-11-24T16:28:45.937Z,99152.00
2022-11-24T16:31:16.315Z,99147.40
2022-11-24T16:33:47.815Z,99150.60
2022-11-24T16:36:15.712Z,99153.00
2022-11-24T16:38:43.918Z,99155.80
2022-11-24T16:41:12.444Z,99153.20
2022-11-24T16:43:40.340Z,99154.40
2022-11-24T16:46:17.101Z,99159.40
2022-11-24T16:48:48.632Z,99155.00
2022-11-24T16:51:18.233Z,99153.80
2022-11-24T16:53:46.537Z,99150.20
2022-11-24T16:56:16.345Z,99153.00
2022-11-24T16:58:44.157Z,99150.80
2022-11-24T17:01:13.860Z,99148.80
2022-11-24T17:03:42.165Z,99148.80
2022-11-24T17:06:15.707Z,99158.20
2022-11-24T17:08:46.259Z,99159.20
2022-11-24T17:11:21.107Z,99167.40
2022-11-24T17:13:49.467Z,99167.20
2022-11-24T17:16:21.388Z,99172.80
2022-11-24T17:18:50.419Z,99181.60
2022-11-24T17:21:25.485Z,99182.40
2022-11-24T17:23:55.858Z,99187.40
2022-11-24T17:26:25.300Z,99186.80
2022-11-24T17:28:54.440Z,99189.00
2022-11-24T17:31:23.651Z,99193.00
2022-11-24T17:33:55.343Z,99197.00
2022-11-24T17:36:23.719Z,99198.20
2022-11-24T17:38:52.405Z,99201.00
2022-11-24T17:41:21.531Z,99206.20
2022-11-24T17:43:51.360Z,99199.40
2022-11-24T17:46:19.620Z,99203.60
2022-11-24T17:48:48.024Z,99202.40
2022-11-24T17:51:19.423Z,99203.00
2022-11-24T17:53:49.861Z,99212.80
2022-11-24T17:56:27.491Z,99215.20
2022-11-24T17:58:59.121Z,99203.80
2022-11-24T18:01:30.131Z,99208.00
2022-11-24T18:03:58.758Z,99208.40
2022-11-24T18:06:28.715Z,99213.40
2022-11-24T18:08:57.861Z,99222.00
2022-11-24T18:11:32.184Z,99220.40
2022-11-24T18:14:10.196Z,99223.20
2022-11-24T18:16:38.171Z,99228.80
2022-11-24T18:19:10.877Z,99228.80
2022-11-24T18:21:41.698Z,99233.20
2022-11-24T18:24:11.776Z,99238.80
2022-11-24T18:26:41.506Z,99246.60
2022-11-24T18:29:11.355Z,99253.40
2022-11-24T18:31:39.552Z,99260.20
2022-11-24T18:34:08.117Z,99262.60
2022-11-24T18:36:36.055Z,99262.20
2022-11-24T18:39:07.363Z,99271.60
2022-11-24T18:41:35.611Z,99276.60
2022-11-24T18:44:07.897Z,99275.40
2022-11-24T18:46:37.609Z,99281.00
2022-11-24T18:49:07.205Z,99285.20
2022-11-24T18:51:35.997Z,99287.20
2022-11-24T18:54:05.349Z,99286.00
2022-11-24T18:56:33.801Z,99280.80
2022-11-24T18:59:01.565Z,99285.40
2022-11-24T19:01:29.728Z,99291.60
2022-11-24T19:04:00.608Z,99294.00
2022-11-24T19:06:32.967Z,99293.40
2022-11-24T19:09:08.188Z,99292.40
2022-11-24T19:11:39.133Z,99296.80
2022-11-24T19:14:11.387Z,99303.20
2022-11-24T19:16:40.540Z,99306.20
2022-11-24T19:19:11.521Z,99307.20
2022-11-24T19:21:41.063Z,99313.80
2022-11-24T19:24:10.409Z,99312.80
2022-11-24T19:26:38.896Z,99318.60
2022-11-24T19:29:08.063Z,99320.20
2022-11-24T19:31:38.366Z,99318.20
2022-11-24T19:34:07.838Z,99318.20
2022-11-24T19:36:36.157Z,99320.40
2022-11-24T19:39:05.082Z,99327.00
2022-11-24T19:41:34.185Z,99322.80
2022-11-24T19:44:01.908Z,99326.60
2022-11-24T19:46:30.309Z,99332.60
2022-11-24T19:49:02.415Z,99336.00
2022-11-24T19:51:36.208Z,99336.00
2022-11-24T19:54:08.233Z,99338.80
2022-11-24T19:56:37.293Z,99341.60
2022-11-24T19:59:06.497Z,99346.60
2022-11-24T20:01:39.187Z,99342.60
2022-11-24T20:04:13.599Z,99349.20
2022-11-24T20:06:45.346Z,99341.80
2022-11-24T20:09:16.978Z,99354.20
2022-11-24T20:11:45.326Z,99362.60
2022-11-24T20:14:15.156Z,99365.40
2022-11-24T20:16:43.422Z,99367.80
2022-11-24T20:19:13.552Z,99373.40
2022-11-24T20:21:46.084Z,99375.00
2022-11-24T20:24:22.371Z,99367.20
2022-11-24T20:26:56.541Z,99366.80
2022-11-24T20:29:24.427Z,99366.80
2022-11-24T20:31:56.032Z,99373.20
2022-11-24T20:34:26.205Z,99377.00
2022-11-24T20:36:54.075Z,99383.40
2022-11-24T20:39:26.324Z,99376.40
2022-11-24T20:41:55.651Z,99371.40
2022-11-24T20:44:26.695Z,99376.40
2022-11-24T20:46:56.893Z,99385.80
2022-11-24T20:49:25.965Z,99382.20
2022-11-24T20:51:57.370Z,99387.60
2022-11-24T20:54:25.355Z,99383.40
2022-11-24T20:56:53.188Z,99384.00
2022-11-24T20:59:24.524Z,99388.20
2022-11-24T21:01:55.177Z,99390.80
2022-11-24T21:04:26.536Z,99395.20
2022-11-24T21:06:54.711Z,99395.00
2022-11-24T21:09:22.547Z,99392.20
2022-11-24T21:11:50.400Z,99394.40
2022-11-24T21:14:18.132Z,99401.60
2022-11-24T21:16:45.951Z,99396.00
2022-11-24T21:19:18.382Z,99391.40
2022-11-24T21:21:47.734Z,99392.40
2022-11-24T21:24:18.880Z,99393.60
2022-11-24T21:26:48.003Z,99396.80
2022-11-24T21:29:22.158Z,99405.80
2022-11-24T21:31:50.276Z,99405.80
2022-11-24T21:34:19.115Z,99406.20
2022-11-24T21:36:47.746Z,99415.40
2022-11-24T21:39:16.367Z,99410.00
2022-11-24T21:41:44.676Z,99413.40
2022-11-24T21:44:13.654Z,99411.80
2022-11-24T21:46:48.314Z,99409.60
2022-11-24T21:49:18.787Z,99404.20
2022-11-24T21:51:47.225Z,99396.80
2022-11-24T21:54:14.997Z,99393.80
2022-11-24T21:56:42.825Z,99383.40
2022-11-24T21:59:10.488Z,99383.80
2022-11-24T22:01:38.457Z,99378.80
2022-11-24T22:04:06.192Z,99383.00
2022-11-24T22:06:33.911Z,99385.40
2022-11-24T22:09:01.689Z,99391.20
2022-11-24T22:11:29.455Z,99390.00
2022-11-24T22:13:57.113Z,99392.00
2022-11-24T22:16:25.718Z,99390.00
2022-11-24T22:18:53.571Z,99393.20
2022-11-24T22:21:25.538Z,99390.20
2022-11-24T22:23:53.441Z,99395.40
2022-11-24T22:26:23.785Z,99389.60
2022-11-24T22:28:53.372Z,99382.00
2022-11-24T22:31:27.939Z,99372.60
2022-11-24T22:33:57.300Z,99378.40
2022-11-24T22:36:28.739Z,99374.80
2022-11-24T22:39:02.926Z,99382.60
2022-11-24T22:41:33.931Z,99386.60
2022-11-24T22:44:01.669Z,99388.60
2022-11-24T22:46:31.467Z,99400.80
2022-11-24T22:49:01.381Z,99404.60
2022-11-24T22:51:33.150Z,99418.20
2022-11-24T22:54:03.843Z,99414.80
2022-11-24T22:56:33.235Z,99416.60
2022-11-24T22:59:04.462Z,99414.20
2022-11-24T23:01:33.826Z,99420.40
2022-11-24T23:04:02.345Z,99419.60
2022-11-24T23:06:33.206Z,99416.40
2022-11-24T23:09:03.114Z,99413.80
2022-11-24T23:11:38.617Z,99420.80
2022-11-24T23:14:12.782Z,99420.00
2022-11-24T23:16:42.055Z,99421.00
2022-11-24T23:19:10.367Z,99430.40
2022-11-24T23:21:38.973Z,99434.60
2022-11-24T23:24:08.489Z,99442.20
2022-11-24T23:26:40.818Z,99442.60
2022-11-24T23:29:10.999Z,99445.20
2022-11-24T23:31:41.550Z,99445.20
2022-11-24T23:34:09.768Z,99453.80
2022-11-24T23:36:37.756Z,99457.60
2022-11-24T23:39:08.935Z,99460.80
2022-11-24T23:41:36.816Z,99462.60
2022-11-24T23:44:05.116Z,99462.20
2022-11-24T23:46:33.335Z,99458.40
2022-11-24T23:49:01.039Z,99470.00
2022-11-24T23:51:33.281Z,99471.80
2022-11-24T23:54:01.391Z,99467.40
2022-11-24T23:56:33.144Z,99468.00
2022-11-24T23:59:04.478Z,99467.60
